Strensall, United Kingdom
Current Conditions -  °F | °C
As of 12:50 PM on Saturday 25 Oct 2014 (Local Time) from EGXU Reporting Station
Broken Clouds Broken Clouds  
Wind Chill: 55°   Ceiling: 5000
Heat Index: 55°   Visibility: 6mi
Dew Point: 46°   Wind: 17mph
Humidity: 72%   Direction: 220°SW
Pressure: 29.88"   Gusts: 30mph
Location:  54.04°N, 1.04°W
Report Text: EGXU 251150Z AUTO 22015G26KT 9999 // SCT024/// SCT032/// BKN050/// 13/08 Q1012
Loading
Personal Weather Stations






























Interactive Weather Map New forecast layout! Learn more

10-Day Weather Forecast

Advertisements
Track Severe Weather on mobile